Time;durP1;ratioP1;P1;durP2;ratioP2;P2;SDS_P1;SDS_P2;PMS_P1;PMS_P2;Temp;Humidity;BMP_temperature;BMP_pressure;BME280_temperature;BME280_humidity;BME280_pressure;Samples;Min_cycle;Max_cycle;Signal;HPM_P1;HPM_P2
2023/04/28 00:01:19;;;;;;;6.80;4.83;;;7.00;99.90;;;-141.84;53.72;19671.56;5013047;28;20422;-72
2023/04/28 00:03:47;;;;;;;8.27;5.83;;;7.00;99.90;;;-141.84;53.83;19635.00;5013742;28;20209;-73
2023/04/28 00:06:16;;;;;;;7.27;5.43;;;7.00;99.90;;;-141.84;54.50;19610.59;5014888;28;20206;-71
2023/04/28 00:08:45;;;;;;;8.87;5.30;;;6.90;99.90;;;-141.84;53.98;19655.31;5014416;28;20210;-72
2023/04/28 00:11:14;;;;;;;7.73;5.40;;;6.90;99.90;;;-141.84;54.38;19630.94;5013492;28;20661;-72
2023/04/28 00:13:42;;;;;;;6.87;5.33;;;6.90;99.90;;;-141.84;54.36;19653.28;5012498;28;20619;-73
2023/04/28 00:16:10;;;;;;;7.13;5.30;;;6.80;99.90;;;-141.84;54.68;19598.41;5012678;28;20203;-71
2023/04/28 00:18:38;;;;;;;8.43;5.33;;;6.80;99.90;;;-141.84;54.13;19655.31;5012567;28;20209;-71
2023/04/28 00:21:07;;;;;;;7.57;5.60;;;6.80;99.90;;;-141.84;54.73;19635.00;5012779;28;20213;-71
2023/04/28 00:23:39;;;;;;;6.80;5.20;;;6.80;99.90;;;-141.84;54.79;19620.78;5012546;28;20519;-72
2023/04/28 00:26:09;;;;;;;8.83;5.60;;;6.70;99.90;;;-141.84;55.04;19622.81;5010805;28;20226;-72
2023/04/28 00:28:37;;;;;;;7.07;5.40;;;6.70;99.90;;;-141.84;55.50;19594.34;4995396;28;20212;-73
2023/04/28 00:31:11;;;;;;;6.43;5.00;;;6.60;99.90;;;-141.84;55.58;19604.50;4992549;28;20251;-72
2023/04/28 00:33:40;;;;;;;10.37;5.67;;;6.60;99.90;;;-141.84;55.66;19592.31;5032965;28;20210;-72
2023/04/28 00:36:10;;;;;;;6.40;5.43;;;6.60;99.90;;;-141.84;55.65;19608.56;5033801;28;20205;-71
2023/04/28 00:38:38;;;;;;;7.17;5.20;;;6.60;99.90;;;-141.84;55.24;19596.38;5002158;28;20617;-72
2023/04/28 00:41:09;;;;;;;8.07;5.43;;;6.60;99.90;;;-141.84;55.59;19586.22;5013766;28;20203;-73
2023/04/28 00:43:48;;;;;;;9.17;5.60;;;6.60;99.90;;;-141.84;55.88;19592.31;5016573;28;20194;-72
2023/04/28 00:46:22;;;;;;;8.20;5.47;;;6.50;99.90;;;-141.84;56.18;19569.97;5017253;28;20200;-72
2023/04/28 00:48:51;;;;;;;7.40;5.10;;;6.40;99.90;;;-141.84;56.04;19569.97;5016486;28;20190;-72
2023/04/28 00:51:20;;;;;;;6.30;5.40;;;6.40;99.90;;;-141.84;56.66;19545.56;5016693;28;20713;-71
2023/04/28 00:53:48;;;;;;;7.83;5.63;;;6.40;99.90;;;-141.84;56.91;19561.84;5019126;28;20210;-71
2023/04/28 00:56:18;;;;;;;9.00;5.60;;;6.30;99.90;;;-141.84;56.77;19557.78;5015806;28;20206;-74
2023/04/28 00:58:46;;;;;;;6.63;5.23;;;6.30;99.90;;;-141.84;56.93;19559.81;5016080;28;20206;-71
2023/04/28 01:01:15;;;;;;;7.43;5.40;;;6.20;99.90;;;-141.84;57.45;19549.63;5015808;28;20198;-72
2023/04/28 01:03:44;;;;;;;5.93;4.83;;;6.20;99.90;;;-141.84;57.68;19527.28;5035026;28;20219;-73
2023/04/28 01:06:14;;;;;;;7.93;5.53;;;6.10;99.90;;;-141.84;58.00;19533.38;5035329;28;20211;-72
2023/04/28 01:08:43;;;;;;;7.50;5.63;;;6.10;99.90;;;-141.84;57.34;19551.69;5036740;28;20196;-72
2023/04/28 01:11:12;;;;;;;7.87;5.77;;;6.10;99.90;;;-141.84;57.71;19537.44;5022859;28;20580;-71
2023/04/28 01:13:42;;;;;;;7.57;5.40;;;6.10;99.90;;;-141.84;57.53;19572.00;5015511;28;20208;-74
2023/04/28 01:16:11;;;;;;;8.43;6.20;;;6.20;99.90;;;-141.84;57.52;19537.44;5015607;28;20205;-72
2023/04/28 01:18:46;;;;;;;6.40;5.67;;;6.20;99.90;;;-141.84;57.69;19559.81;5016279;28;20210;-71
2023/04/28 01:21:15;;;;;;;8.63;5.97;;;6.10;99.90;;;-141.84;57.85;19553.72;5014934;28;20205;-72
2023/04/28 01:23:47;;;;;;;7.17;5.60;;;6.10;99.90;;;-141.84;57.97;19509.00;4997520;28;20206;-72
2023/04/28 01:26:19;;;;;;;8.73;6.37;;;6.10;99.90;;;-141.84;57.80;19529.31;5015637;28;20236;-72
2023/04/28 01:28:47;;;;;;;7.80;5.83;;;6.10;99.90;;;-141.84;57.77;19541.50;4996672;28;20202;-73
2023/04/28 01:31:15;;;;;;;7.90;6.00;;;6.10;99.90;;;-141.84;57.96;19555.75;5010653;28;20223;-72
2023/04/28 01:33:44;;;;;;;11.83;6.40;;;6.10;99.90;;;-141.84;57.94;19557.78;5017136;28;20235;-70
2023/04/28 01:36:12;;;;;;;8.13;5.80;;;6.10;99.90;;;-141.84;58.07;19553.72;5017746;28;20216;-72
2023/04/28 01:38:40;;;;;;;6.87;6.03;;;6.00;99.90;;;-141.84;58.27;19527.28;4977522;28;20199;-72
2023/04/28 01:41:10;;;;;;;8.67;6.00;;;6.00;99.90;;;-141.84;57.83;19576.06;4995823;28;20573;-71
2023/04/28 01:43:38;;;;;;;7.97;6.17;;;6.10;99.90;;;-141.84;57.95;19533.38;4995406;28;20210;-71
2023/04/28 01:46:06;;;;;;;8.27;5.90;;;6.10;99.90;;;-141.84;57.76;19590.28;4995166;28;20226;-72
2023/04/28 01:48:34;;;;;;;8.27;6.20;;;6.10;99.90;;;-141.84;57.96;19565.91;4995776;28;20268;-71
2023/04/28 01:51:03;;;;;;;7.30;6.47;;;6.10;99.90;;;-141.84;57.90;19525.25;4994995;28;20230;-72
2023/04/28 01:53:31;;;;;;;8.10;6.03;;;6.20;99.90;;;-141.84;57.84;19551.69;4994579;28;20202;-73
2023/04/28 01:55:59;;;;;;;9.30;6.23;;;6.20;99.90;;;-141.84;57.41;19541.50;4995966;28;20566;-72
2023/04/28 01:58:28;;;;;;;8.33;6.07;;;6.30;99.90;;;-141.84;57.25;19559.81;4995372;28;20217;-73
2023/04/28 02:00:56;;;;;;;8.20;6.30;;;6.30;99.90;;;-141.84;57.31;19588.25;4994769;28;20203;-73
2023/04/28 02:03:25;;;;;;;9.20;7.20;;;6.30;99.90;;;-141.84;57.20;19559.81;5028413;28;20214;-73
2023/04/28 02:05:54;;;;;;;9.43;5.97;;;6.40;99.90;;;-141.84;57.10;19586.22;5036064;28;20202;-70
2023/04/28 02:08:22;;;;;;;7.33;6.10;;;6.40;99.90;;;-141.84;57.15;19600.44;5034208;28;20202;-71
2023/04/28 02:10:50;;;;;;;8.77;6.50;;;6.40;99.90;;;-141.84;56.85;19582.16;5025340;28;20214;-71
2023/04/28 02:13:18;;;;;;;9.23;6.70;;;6.40;99.90;;;-141.84;57.12;19576.06;5014761;28;20211;-73
2023/04/28 02:15:48;;;;;;;9.10;6.70;;;6.40;99.90;;;-141.84;57.06;19553.72;5013739;28;20206;-71
2023/04/28 02:18:16;;;;;;;8.80;6.27;;;6.40;99.90;;;-141.84;57.31;19594.34;5015959;28;20210;-72
2023/04/28 02:20:44;;;;;;;9.17;7.37;;;6.40;99.90;;;-141.84;56.64;19582.16;5014378;28;20210;-72
2023/04/28 02:23:12;;;;;;;7.87;6.53;;;6.40;99.90;;;-141.84;57.01;19543.53;5013880;28;20559;-72
2023/04/28 02:25:40;;;;;;;9.50;7.13;;;6.40;99.90;;;-141.84;56.91;19574.03;5014150;28;20573;-70
2023/04/28 02:28:09;;;;;;;8.00;6.73;;;6.40;99.90;;;-141.84;56.93;19574.03;5000275;28;20277;-72
2023/04/28 02:30:37;;;;;;;9.27;7.40;;;6.40;99.90;;;-141.84;57.12;19565.91;4995398;28;20235;-72
2023/04/28 02:33:06;;;;;;;9.10;7.33;;;6.40;99.90;;;-141.84;56.85;19567.94;5022985;28;20216;-72
2023/04/28 02:35:35;;;;;;;10.13;7.40;;;6.40;99.90;;;-141.84;56.89;19572.00;5022030;28;20740;-70
2023/04/28 02:38:03;;;;;;;11.37;7.70;;;6.40;99.90;;;-141.84;57.02;19602.47;5014117;28;20206;-72
2023/04/28 02:40:31;;;;;;;10.63;7.90;;;6.40;99.90;;;-141.84;56.83;19574.03;5014960;28;20206;-72
2023/04/28 02:42:59;;;;;;;10.60;7.70;;;6.40;99.90;;;-141.84;56.84;19543.53;5014892;28;20685;-72
2023/04/28 02:45:27;;;;;;;9.83;8.00;;;6.40;99.90;;;-141.84;56.88;19578.09;5015241;28;20574;-72
2023/04/28 02:47:56;;;;;;;10.60;7.70;;;6.40;99.90;;;-141.84;57.51;19588.25;5013172;28;20206;-73
2023/04/28 02:50:25;;;;;;;9.27;7.77;;;6.30;99.90;;;-141.84;57.80;19563.88;5014882;28;20248;-72
2023/04/28 02:52:54;;;;;;;10.57;7.50;;;6.30;99.90;;;-141.84;57.53;19557.78;5015572;28;20212;-72
2023/04/28 02:55:23;;;;;;;10.33;8.17;;;6.30;99.90;;;-141.84;57.36;19557.78;5015372;28;20207;-72
2023/04/28 02:57:51;;;;;;;10.17;8.20;;;6.30;99.90;;;-141.84;57.42;19553.72;5014900;28;20209;-73
2023/04/28 03:00:20;;;;;;;9.17;8.27;;;6.30;99.90;;;-141.84;57.29;19559.81;5014242;28;20232;-55
2023/04/28 03:02:48;;;;;;;10.87;8.33;;;6.30;99.90;;;-141.84;56.78;19590.28;5007670;28;20293;-54
2023/04/28 03:05:20;;;;;;;12.07;8.07;;;6.40;99.90;;;-141.84;56.78;19572.00;5000052;28;20298;-56
2023/04/28 03:07:49;;;;;;;9.53;7.97;;;6.40;99.90;;;-141.84;56.85;19569.97;4977167;28;20215;-57
2023/04/28 03:10:17;;;;;;;11.93;8.77;;;6.50;99.90;;;-141.84;56.52;19574.03;5001147;28;20213;-53
2023/04/28 03:12:45;;;;;;;9.20;8.10;;;6.60;99.90;;;-141.84;56.75;19572.00;5014723;28;20645;-56
2023/04/28 03:15:14;;;;;;;9.90;8.33;;;6.50;99.90;;;-141.84;56.23;19610.59;5015326;28;20210;-56
2023/04/28 03:17:45;;;;;;;11.07;8.30;;;6.60;99.90;;;-141.84;56.32;19598.41;5014777;28;20273;-56
2023/04/28 03:20:14;;;;;;;12.60;9.03;;;6.70;99.90;;;-141.84;56.51;19580.13;5013634;28;20236;-54
2023/04/28 03:22:42;;;;;;;12.47;9.10;;;6.70;99.90;;;-141.84;56.43;19608.56;5013890;28;20208;-55
2023/04/28 03:25:12;;;;;;;12.27;9.30;;;6.70;99.90;;;-141.84;56.63;19588.25;5014383;28;20206;-57
2023/04/28 03:27:40;;;;;;;11.90;9.13;;;6.60;99.90;;;-141.84;57.27;19578.09;5012631;28;20504;-57
2023/04/28 03:30:09;;;;;;;12.73;10.20;;;6.60;99.90;;;-141.84;57.15;19543.53;5012999;28;20675;-55
2023/04/28 03:32:37;;;;;;;11.17;9.37;;;6.50;99.90;;;-141.84;57.38;19563.88;5015083;28;20240;-55
2023/04/28 03:35:06;;;;;;;13.73;8.73;;;6.40;99.90;;;-141.84;57.64;19561.84;5023416;28;20209;-54
2023/04/28 03:37:35;;;;;;;10.50;8.83;;;6.40;99.90;;;-141.84;58.19;19543.53;5022590;28;20213;-51
2023/04/28 03:40:07;;;;;;;10.87;9.37;;;6.40;99.90;;;-141.84;58.21;19561.84;5028899;28;20214;-56
2023/04/28 03:42:37;;;;;;;13.43;10.53;;;6.40;99.90;;;-141.84;57.94;19592.31;5012682;28;20206;-52
2023/04/28 03:45:07;;;;;;;12.03;9.73;;;6.40;99.90;;;-141.84;57.65;19598.41;5013748;28;20194;-54
2023/04/28 03:47:36;;;;;;;10.80;9.67;;;6.40;99.90;;;-141.84;57.71;19612.63;5012679;28;20222;-55
2023/04/28 03:50:05;;;;;;;11.63;9.80;;;6.40;99.90;;;-141.84;57.15;19565.91;5014395;28;20207;-51
2023/04/28 03:52:33;;;;;;;12.03;9.77;;;6.50;99.90;;;-141.84;57.39;19592.31;5012348;28;20589;-54
2023/04/28 03:55:01;;;;;;;13.70;10.90;;;6.50;99.90;;;-141.84;57.67;19555.75;5015759;28;20367;-55
2023/04/28 03:57:29;;;;;;;10.50;9.40;;;6.50;99.90;;;-141.84;57.46;19569.97;5013625;28;20210;-56
2023/04/28 03:59:59;;;;;;;13.83;10.80;;;6.50;99.90;;;-141.84;57.38;19555.75;5013790;28;20205;-56
2023/04/28 04:02:27;;;;;;;11.83;10.60;;;6.60;99.90;;;-141.84;57.54;19551.69;5014113;28;20198;-55
2023/04/28 04:04:55;;;;;;;13.30;10.07;;;6.60;99.90;;;-141.84;57.46;19563.88;5014608;28;20298;-57
2023/04/28 04:07:24;;;;;;;12.97;9.70;;;6.50;99.90;;;-141.84;58.06;19541.50;5014359;28;20241;-56
2023/04/28 04:09:52;;;;;;;11.40;9.17;;;6.50;99.90;;;-141.84;58.37;19559.81;5012669;28;20396;-55
2023/04/28 04:12:21;;;;;;;13.50;9.43;;;6.50;99.90;;;-141.84;58.04;19576.06;5013388;28;20229;-55
2023/04/28 04:14:49;;;;;;;13.03;9.63;;;6.50;99.90;;;-141.84;57.33;19574.03;5014333;28;20207;-57
2023/04/28 04:17:21;;;;;;;12.87;9.80;;;6.50;99.90;;;-141.84;57.64;19553.72;5016253;28;20202;-55
2023/04/28 04:19:49;;;;;;;13.23;10.80;;;6.60;99.90;;;-141.84;57.22;19586.22;5017868;28;20222;-56
2023/04/28 04:22:17;;;;;;;14.70;10.30;;;6.60;99.90;;;-141.84;57.17;19637.03;5018224;28;20202;-58
2023/04/28 04:24:45;;;;;;;14.77;10.30;;;6.70;99.90;;;-141.84;57.06;19628.91;5017268;28;20682;-55
2023/04/28 04:27:19;;;;;;;14.00;10.43;;;6.70;99.90;;;-141.84;56.15;19637.03;5019154;28;20597;-73
2023/04/28 04:29:47;;;;;;;11.70;10.40;;;6.90;99.90;;;-141.84;56.44;19614.66;5018528;28;20192;-73
2023/04/28 04:32:19;;;;;;;11.63;10.00;;;6.90;99.90;;;-141.84;55.76;19641.09;5017287;28;20229;-71
2023/04/28 04:34:47;;;;;;;13.30;10.53;;;7.00;99.90;;;-141.84;54.96;19653.28;5016850;28;20187;-72
2023/04/28 04:37:15;;;;;;;12.67;9.97;;;7.10;99.90;;;-141.84;55.27;19651.25;5017807;28;20210;-71
2023/04/28 04:39:43;;;;;;;13.50;9.73;;;7.20;99.90;;;-141.84;55.24;19639.06;5018315;28;20214;-71
2023/04/28 04:42:11;;;;;;;11.37;10.10;;;7.20;99.90;;;-141.84;55.15;19669.53;5017810;28;20202;-71
2023/04/28 04:44:52;;;;;;;11.63;10.10;;;7.30;99.90;;;-141.84;54.81;19716.28;5017535;28;20662;-72
2023/04/28 04:47:24;;;;;;;11.77;10.13;;;7.30;99.90;;;-141.84;55.30;19671.56;5016844;28;20207;-73
2023/04/28 04:49:53;;;;;;;13.03;10.00;;;7.30;99.90;;;-141.84;55.00;19683.78;5018227;28;20298;-73
2023/04/28 04:52:23;;;;;;;11.40;10.10;;;7.40;99.90;;;-141.84;54.73;19669.53;5017976;28;20598;-72
2023/04/28 04:54:52;;;;;;;11.90;10.00;;;7.40;99.90;;;-141.84;54.35;19700.03;5016798;28;20198;-71
2023/04/28 04:57:20;;;;;;;12.20;10.13;;;7.50;99.90;;;-141.84;54.43;19677.66;5017520;28;20194;-71
2023/04/28 04:59:48;;;;;;;11.73;10.20;;;7.50;99.90;;;-141.84;53.99;19677.66;5017834;28;20203;-73
2023/04/28 05:02:20;;;;;;;12.03;9.80;;;7.60;99.90;;;-141.84;54.56;19641.09;5016987;28;20218;-73
2023/04/28 05:04:50;;;;;;;11.30;10.10;;;7.60;99.90;;;-141.84;54.69;19681.75;5018689;28;20199;-73
2023/04/28 05:07:18;;;;;;;11.53;10.23;;;7.60;99.90;;;-141.84;54.69;19704.09;5016513;28;20205;-73
2023/04/28 05:09:46;;;;;;;12.27;10.30;;;7.60;99.90;;;-141.84;54.47;19681.75;5015439;28;20206;-72
2023/04/28 05:12:14;;;;;;;11.27;10.03;;;7.70;99.90;;;-141.84;54.56;19679.72;5015433;28;20249;-72
2023/04/28 05:14:42;;;;;;;12.27;10.23;;;7.70;99.90;;;-141.84;54.51;19695.97;5015673;28;20214;-72
2023/04/28 05:17:11;;;;;;;13.03;11.10;;;7.70;99.90;;;-141.84;53.77;19714.25;5015662;28;20215;-73
2023/04/28 05:19:39;;;;;;;13.47;11.00;;;7.90;99.90;;;-141.84;53.34;19783.34;5017362;28;20313;-72
2023/04/28 05:22:08;;;;;;;12.87;10.13;;;8.00;99.90;;;-141.84;53.46;19765.06;5017784;28;20230;-73
2023/04/28 05:24:36;;;;;;;11.53;10.30;;;8.10;99.90;;;-141.84;53.68;19748.81;5016528;28;20207;-71
2023/04/28 05:27:05;;;;;;;14.73;10.37;;;8.10;99.90;;;-141.84;52.52;19797.59;5016153;28;20229;-71
2023/04/28 05:29:33;;;;;;;12.27;9.83;;;8.30;99.90;;;-141.84;52.28;19799.63;5015194;28;20575;-73
2023/04/28 05:32:01;;;;;;;13.30;10.40;;;8.40;99.90;;;-141.84;52.54;19807.75;5015043;28;20211;-71
2023/04/28 05:34:30;;;;;;;11.13;9.40;;;8.50;99.90;;;-141.84;51.63;19850.41;5015983;28;20206;-70
2023/04/28 05:36:58;;;;;;;11.93;10.13;;;8.70;99.90;;;-141.84;51.27;19862.63;5015893;28;20222;-70
2023/04/28 05:39:28;;;;;;;14.17;9.90;;;8.90;99.90;;;-141.84;50.36;19921.56;5015432;28;20211;-71
2023/04/28 05:41:57;;;;;;;10.83;9.67;;;9.10;99.90;;;-141.84;50.36;19903.25;5015150;28;20199;-69
2023/04/28 05:44:25;;;;;;;12.23;10.13;;;9.20;99.90;;;-141.84;49.88;19927.66;5015266;28;20242;-70
2023/04/28 05:46:54;;;;;;;13.97;10.57;;;9.40;99.90;;;-141.84;49.29;19954.06;5015964;28;20207;-71
2023/04/28 05:49:22;;;;;;;11.23;10.03;;;9.50;99.90;;;-141.84;49.58;19917.50;5014597;28;20252;-70
2023/04/28 05:51:50;;;;;;;11.13;9.07;;;9.60;99.90;;;-141.84;49.81;19941.88;5015390;28;20253;-70
2023/04/28 05:54:18;;;;;;;14.73;9.50;;;9.60;99.90;;;-141.84;49.45;19974.41;4995268;28;20605;-70
2023/04/28 05:56:48;;;;;;;13.47;10.10;;;9.70;99.90;;;-141.84;49.17;19952.03;4995082;28;20751;-69
2023/04/28 05:59:17;;;;;;;10.57;9.47;;;9.80;99.90;;;-141.84;49.00;19956.09;4995853;28;20210;-71
2023/04/28 06:01:45;;;;;;;10.83;9.73;;;9.80;99.90;;;-141.84;49.12;19970.34;5008500;28;20209;-70
2023/04/28 06:04:13;;;;;;;10.33;8.67;;;9.90;99.90;;;-141.84;49.48;19998.78;5014676;28;20199;-71
2023/04/28 06:06:43;;;;;;;11.70;9.00;;;10.00;99.90;;;-141.84;48.34;20045.53;4996138;28;20202;-71
2023/04/28 06:09:11;;;;;;;11.33;9.53;;;10.20;99.90;;;-141.84;47.86;20090.25;5014558;28;20207;-71
2023/04/28 06:11:39;;;;;;;11.00;9.67;;;10.60;99.90;;;-141.84;46.86;20124.81;5014983;28;20210;-70
2023/04/28 06:14:08;;;;;;;11.70;9.73;;;10.90;99.90;;;-141.84;45.76;20216.25;5014352;28;20223;-71
2023/04/28 06:16:36;;;;;;;12.97;9.60;;;11.30;99.90;;;-141.84;44.59;20277.25;5013753;28;20663;-71
2023/04/28 06:19:05;;;;;;;13.30;9.17;;;11.70;99.90;;;-141.84;44.74;20258.94;5014067;28;20207;-69
2023/04/28 06:21:33;;;;;;;12.17;9.40;;;11.90;99.90;;;-141.84;44.42;20216.25;5014131;28;20229;-71
2023/04/28 06:24:01;;;;;;;12.30;9.47;;;11.90;99.90;;;-141.84;44.97;20254.88;5013630;28;20207;-71
2023/04/28 06:26:29;;;;;;;10.87;9.57;;;11.90;99.90;;;-141.84;45.15;20238.63;5012309;28;20239;-71
2023/04/28 06:28:58;;;;;;;11.37;8.87;;;11.90;99.90;;;-141.84;44.54;20271.16;4994495;28;20234;-70
2023/04/28 06:31:27;;;;;;;9.60;8.50;;;12.10;99.90;;;-141.84;44.40;20326.03;4998622;28;20207;-70
2023/04/28 06:34:00;;;;;;;13.17;9.83;;;12.30;99.90;;;-141.84;44.35;20299.59;5017742;28;20238;-70
2023/04/28 06:36:28;;;;;;;11.23;9.67;;;12.30;99.90;;;-141.84;43.30;20281.31;4999654;28;20218;-72
2023/04/28 06:39:00;;;;;;;10.23;8.53;;;12.30;99.90;;;-141.84;44.02;20297.56;5017667;28;20205;-71
2023/04/28 06:41:29;;;;;;;12.50;9.00;;;12.40;99.90;;;-141.84;43.53;20311.78;5017995;28;20533;-70
2023/04/28 06:44:00;;;;;;;10.47;8.20;;;12.40;99.90;;;-141.84;43.64;20289.44;5017923;28;20663;-71
2023/04/28 06:46:30;;;;;;;9.80;7.93;;;12.40;99.90;;;-141.84;43.56;20332.13;5016347;28;20211;-69
2023/04/28 06:49:00;;;;;;;10.07;8.27;;;12.50;99.90;;;-141.84;43.93;20368.72;5017825;28;20266;-71
2023/04/28 06:51:28;;;;;;;13.30;9.07;;;12.60;99.90;;;-141.84;43.23;20334.16;5017557;28;20230;-71
2023/04/28 06:54:01;;;;;;;10.67;7.93;;;12.40;99.90;;;-141.84;43.46;20334.16;5017764;28;20238;-70
2023/04/28 06:56:29;;;;;;;9.57;8.47;;;12.60;99.90;;;-141.84;43.54;20368.72;5017191;28;20698;-70
2023/04/28 06:59:00;;;;;;;11.00;9.23;;;12.60;99.90;;;-141.84;43.42;20362.63;5017663;28;20222;-71
2023/04/28 07:01:29;;;;;;;12.30;8.30;;;12.60;99.90;;;-141.84;43.40;20407.34;5017196;28;20194;-72
2023/04/28 07:04:00;;;;;;;9.93;8.90;;;12.70;99.90;;;-141.84;43.68;20358.56;5017607;28;20658;-70
2023/04/28 07:06:30;;;;;;;10.80;8.87;;;12.70;99.90;;;-141.84;43.64;20358.56;5017561;28;20237;-71
2023/04/28 07:09:03;;;;;;;13.97;9.83;;;12.70;99.90;;;-141.84;43.80;20403.25;5018013;28;20685;-71
2023/04/28 07:11:32;;;;;;;9.43;8.27;;;12.70;99.90;;;-141.84;43.91;20403.25;5017544;28;20299;-72
2023/04/28 07:14:00;;;;;;;12.25;8.60;;;12.70;99.90;;;-141.84;43.43;20401.22;5018084;28;20219;-72
2023/04/28 07:16:30;;;;;;;9.93;8.10;;;12.80;99.90;;;-141.84;43.64;20391.06;5017100;28;20701;-72
2023/04/28 07:19:00;;;;;;;11.77;8.83;;;12.90;99.90;;;-141.84;44.08;20380.91;5017686;28;20207;-70
2023/04/28 07:21:28;;;;;;;10.27;8.70;;;12.90;99.90;;;-141.84;44.13;20374.81;5017692;28;20245;-70
2023/04/28 07:24:00;;;;;;;9.90;8.50;;;12.90;99.90;;;-141.84;44.54;20332.13;5017537;28;20209;-69
2023/04/28 07:26:28;;;;;;;12.33;8.73;;;12.80;99.90;;;-141.84;45.35;20342.28;5015573;28;20245;-70
2023/04/28 07:28:57;;;;;;;10.17;8.73;;;12.60;99.90;;;-141.84;45.03;20350.41;4994329;28;20217;-69
2023/04/28 07:31:25;;;;;;;9.57;7.97;;;12.70;99.90;;;-141.84;45.05;20358.56;4993388;28;20200;-73
2023/04/28 07:33:55;;;;;;;9.37;8.20;;;12.70;99.90;;;-141.84;44.54;20387.00;5013737;28;20598;-71
2023/04/28 07:36:23;;;;;;;10.25;8.88;;;12.80;99.90;;;-141.84;44.24;20425.63;5014088;28;20206;-69
2023/04/28 07:38:51;;;;;;;12.35;8.40;;;13.10;99.90;;;-141.84;44.53;20454.09;5014216;28;20214;-69
2023/04/28 07:41:19;;;;;;;9.90;8.40;;;13.20;99.90;;;-141.84;44.40;20482.53;5013013;28;20228;-70
2023/04/28 07:43:47;;;;;;;10.25;8.50;;;13.50;99.90;;;-141.84;43.65;20511.00;5008924;28;20702;-69
2023/04/28 07:46:19;;;;;;;10.68;8.20;;;13.60;99.90;;;-141.84;43.27;20563.84;5015332;28;20202;-70
2023/04/28 07:48:48;;;;;;;13.02;8.50;;;13.70;99.90;;;-141.84;43.36;20600.44;5013260;28;20191;-72
2023/04/28 07:51:17;;;;;;;10.10;8.88;;;13.90;99.90;;;-141.84;42.03;20618.72;5012310;28;20225;-73
2023/04/28 07:53:45;;;;;;;11.18;8.30;;;14.10;99.90;;;-141.84;42.70;20590.28;5013506;28;20222;-71
2023/04/28 07:56:18;;;;;;;10.80;8.50;;;14.20;99.90;;;-141.84;42.27;20657.34;5013975;28;20210;-67
2023/04/28 07:58:46;;;;;;;12.68;8.10;;;14.40;99.90;;;-141.84;42.01;20622.81;5014417;28;20214;-67
2023/04/28 08:01:15;;;;;;;12.98;8.57;;;14.40;99.90;;;-141.84;41.93;20691.91;5012725;28;20195;-67
2023/04/28 08:03:43;;;;;;;10.82;7.95;;;14.50;99.90;;;-141.84;41.26;20700.03;4978256;28;20213;-67
2023/04/28 08:06:13;;;;;;;13.15;7.95;;;14.60;99.90;;;-141.84;41.85;20708.19;5012974;28;20206;-68
2023/04/28 08:08:45;;;;;;;10.63;8.25;;;14.70;99.90;;;-141.84;41.59;20752.91;5013369;28;20693;-66
2023/04/28 08:11:13;;;;;;;10.02;7.88;;;14.80;99.90;;;-141.84;41.66;20726.47;5013818;28;20205;-67
2023/04/28 08:13:41;;;;;;;14.07;9.10;;;15.00;99.90;;;-141.84;41.69;20722.41;5013622;28;20233;-67
2023/04/28 08:16:09;;;;;;;11.15;7.70;;;14.90;99.90;;;-141.84;41.95;20744.78;5012541;28;20211;-66
2023/04/28 08:18:38;;;;;;;11.45;7.95;;;14.80;99.90;;;-141.84;41.87;20683.78;5011826;28;20199;-66
2023/04/28 08:21:07;;;;;;;10.88;8.02;;;14.70;99.90;;;-141.84;42.67;20639.06;5011992;28;20281;-66
2023/04/28 08:23:35;;;;;;;9.55;7.90;;;14.60;99.90;;;-141.84;42.45;20614.66;5011915;28;20195;-65
2023/04/28 08:26:05;;;;;;;10.75;7.75;;;14.60;99.90;;;-141.84;42.72;20618.72;5011655;28;20245;-67
2023/04/28 08:28:33;;;;;;;9.00;7.20;;;14.50;99.90;;;-141.84;43.12;20596.38;4994791;28;20262;-67
2023/04/28 08:31:01;;;;;;;9.48;7.65;;;14.40;99.90;;;-141.84;43.67;20651.25;4992600;28;20215;-70
2023/04/28 08:33:29;;;;;;;10.90;7.32;;;14.50;99.90;;;-141.84;43.30;20657.34;5008817;28;20206;-71
2023/04/28 08:35:58;;;;;;;9.27;7.07;;;14.60;99.90;;;-141.84;42.84;20683.78;5007984;28;20202;-69
2023/04/28 08:38:27;;;;;;;9.90;6.68;;;14.80;99.90;;;-141.84;41.44;20740.69;5011080;28;20550;-67
2023/04/28 08:41:00;;;;;;;11.05;6.47;;;14.90;99.90;;;-141.84;41.94;20722.41;5011374;28;20202;-68
2023/04/28 08:43:32;;;;;;;6.68;5.90;;;15.00;99.90;;;-141.84;42.12;20720.38;5010863;28;20193;-68
2023/04/28 08:46:07;;;;;;;8.43;6.10;;;14.90;99.90;;;-141.84;42.20;20689.88;5012438;28;20191;-66
2023/04/28 08:48:41;;;;;;;9.70;5.85;;;14.90;99.90;;;-141.84;43.25;20738.66;5011624;28;20237;-67
2023/04/28 08:51:14;;;;;;;7.35;5.68;;;14.90;99.90;;;-141.84;42.74;20700.03;5012783;28;20196;-69
2023/04/28 08:53:50;;;;;;;10.77;6.75;;;14.70;99.90;;;-141.84;43.76;20693.94;5011666;28;20187;-69
2023/04/28 08:56:24;;;;;;;7.40;5.80;;;14.70;99.90;;;-141.84;45.18;20655.31;5018720;28;20194;-68
2023/04/28 08:58:55;;;;;;;7.18;6.30;;;14.60;99.90;;;-141.84;45.82;20637.03;5012524;28;20206;-69
2023/04/28 09:01:23;;;;;;;9.23;6.70;;;14.40;99.90;;;-141.84;46.83;20588.25;4993409;28;20209;-69
2023/04/28 09:03:54;;;;;;;9.13;6.25;;;14.40;99.90;;;-141.84;47.15;20541.50;4994463;28;20231;-68
2023/04/28 09:06:23;;;;;;;8.20;6.22;;;14.40;99.90;;;-141.84;47.36;20537.44;4996481;28;20254;-65
2023/04/28 09:08:51;;;;;;;8.55;6.40;;;14.30;99.90;;;-141.84;47.91;20582.16;4997099;28;20207;-68
2023/04/28 09:11:19;;;;;;;10.90;7.30;;;14.20;99.90;;;-141.84;48.56;20561.81;5012126;28;20198;-69
2023/04/28 09:13:47;;;;;;;9.30;6.63;;;14.30;99.90;;;-141.84;47.85;20582.16;5016223;28;20211;-71
2023/04/28 09:16:17;;;;;;;7.65;6.22;;;14.20;99.90;;;-141.84;47.97;20574.00;5014956;28;20209;-68
2023/04/28 09:19:00;;;;;;;7.45;6.53;;;14.30;99.90;;;-141.84;48.02;20553.69;5014098;28;20301;-66
2023/04/28 09:21:28;;;;;;;11.10;6.60;;;14.30;99.90;;;-141.84;47.63;20602.47;4997402;28;20198;-66
2023/04/28 09:23:56;;;;;;;9.75;6.90;;;14.30;99.90;;;-141.84;49.21;20525.22;5015778;28;20583;-65
2023/04/28 09:26:24;;;;;;;10.25;6.50;;;14.10;99.90;;;-141.84;50.79;20549.63;5014608;28;20237;-70
2023/04/28 09:28:56;;;;;;;10.35;7.78;;;14.20;99.90;;;-141.84;51.76;20541.50;5015520;28;20203;-67
2023/04/28 09:31:27;;;;;;;10.32;7.50;;;14.00;99.90;;;-141.84;51.21;20523.19;5014086;28;20635;-70
2023/04/28 09:33:59;;;;;;;8.35;7.55;;;14.10;99.90;;;-141.84;51.10;20519.13;5013976;28;20198;-66
2023/04/28 09:36:29;;;;;;;8.25;7.30;;;14.10;99.90;;;-141.84;52.13;20594.34;5014455;28;20199;-67
2023/04/28 09:38:59;;;;;;;9.75;7.90;;;14.30;99.90;;;-141.84;51.57;20549.63;5014909;28;20203;-66
2023/04/28 09:41:41;;;;;;;9.93;8.20;;;14.20;99.90;;;-141.84;52.96;20547.59;5014573;28;20209;-69
2023/04/28 09:44:20;;;;;;;9.45;7.10;;;14.20;99.90;;;-141.84;53.07;20571.97;5019508;28;20210;-63
2023/04/28 09:46:50;;;;;;;9.88;7.82;;;14.20;99.90;;;-141.84;53.70;20511.00;5033077;28;20186;-68
2023/04/28 09:49:18;;;;;;;8.60;7.63;;;14.00;99.90;;;-141.84;53.79;20445.94;5035348;28;20213;-69
2023/04/28 09:51:46;;;;;;;11.27;8.30;;;13.90;99.90;;;-141.84;54.33;20484.56;5029793;28;20206;-68
2023/04/28 09:54:16;;;;;;;10.55;8.50;;;13.90;99.90;;;-141.84;54.36;20441.88;5013437;28;20202;-68
2023/04/28 09:56:47;;;;;;;9.82;8.20;;;13.80;99.90;;;-141.84;54.02;20472.38;5013074;28;20206;-68
2023/04/28 09:59:20;;;;;;;14.00;8.52;;;13.80;99.90;;;-141.84;53.57;20500.84;5013646;28;20187;-66
2023/04/28 10:01:50;;;;;;;9.15;8.20;;;13.80;99.90;;;-141.84;54.50;20488.63;5013278;28;20206;-66
2023/04/28 10:04:18;;;;;;;8.52;7.72;;;14.00;99.90;;;-141.84;54.06;20549.63;5013413;28;20274;-66
2023/04/28 10:06:47;;;;;;;10.23;8.38;;;14.10;99.90;;;-141.84;53.72;20513.03;5013649;28;20686;-67
2023/04/28 10:09:16;;;;;;;10.43;9.32;;;14.00;99.90;;;-141.84;54.60;20515.06;5013118;28;20203;-66
2023/04/28 10:11:45;;;;;;;13.15;9.23;;;14.20;99.90;;;-141.84;55.88;20490.66;5013851;28;20582;-66
2023/04/28 10:14:13;;;;;;;14.50;11.02;;;14.10;99.90;;;-141.84;55.09;20478.47;5012714;28;20214;-66